• Join FlightAware (Why Join?)
  • Login
  • US Flag 
04:50AM EST


 

Airport Tracker/Info


-or-


 

Live Flight TrackerFlight Track Log ✈ DAL268 ✈ 2013年 09月 30日 ✈ KJFK - LLBG / TLV

Flight Track Log - Related Links

Times and Time Zones

All times are in EDT time to prevent confusion due to time zone crossing. See the DAL268 flight status page for this flight to view local times or setup timezone preferences in your user account.

Time Position Orientation Groundspeed Altitude Reporting Facility
EDT Latitude Longitude Course Direction KTS MPH feet Rate Location/Type
09:36PM 40.6330 -73.7740 217° Southwest 115 132  Level FlightAware
09:37PM 40.6170 -73.7860 210° Southwest 175 201 200 1,080 Climbing FlightAware
09:37PM 40.6010 -73.7990 212° Southwest 175 201 900 1,500 Climbing FlightAware
09:38PM 40.5860 -73.8100 209° Southwest 187 215 1,300 1,020 Climbing FlightAware
09:38PM 40.5700 -73.8230 212° Southwest 213 245 1,600 840 Climbing FlightAware
09:38PM 40.5630 -73.8270 203° Southwest 222 255 1,700 1,080 Climbing FlightAware
09:38PM 40.5540 -73.8310 199° South 234 269 1,900 960 Climbing FlightAware
09:38PM 40.5500 -73.8310 180° South 239 275 1,900 420 Level FlightAware
09:38PM 40.5390 -73.8300 176° South 252 290 2,000 660 Climbing FlightAware
09:38PM 40.5310 -73.8250 155° Southeast 259 298 2,100 720 Climbing FlightAware
09:39PM 40.5230 -73.8190 150° Southeast 268 308 2,200 1,260 Climbing FlightAware
09:39PM 40.5140 -73.8050 130° Southeast 277 319 2,500 1,260 Climbing FlightAware
09:39PM 40.5090 -73.7930 119° Southeast 284 327 2,600 1,500 Climbing FlightAware
09:39PM 40.5050 -73.7720 104° East 290 334 3,000 2,100 Climbing FlightAware
09:39PM 40.5040 -73.7580 95° East 292 336 3,300 2,220 Climbing FlightAware
09:39PM 40.5050 -73.7440 85° East 293 337 3,600 1,860 Climbing FlightAware
09:40PM 40.5110 -73.7210 71° East 293 337 4,000 2,160 Climbing FlightAware
09:40PM 40.5180 -73.7090 52° Northeast 289 333 4,400 2,100 Climbing FlightAware
09:40PM 40.5300 -73.6940 44° Northeast 278 320 4,700 1,200 Climbing FlightAware
09:40PM 40.5360 -73.6890 32° Northeast 278 320 4,800 1,080 Climbing FlightAware
09:40PM 40.5460 -73.6830 25° Northeast 281 323 5,000 1,560 Climbing FlightAware
09:40PM 40.5580 -73.6810 North 285 328 5,200 2,760 Climbing FlightAware
09:40PM 40.5680 -73.6790 North 279 321 5,700 2,520 Climbing FlightAware
09:41PM 40.5990 -73.6740 North 289 333 6,600 2,040 Climbing FlightAware
09:41PM 40.6210 -73.6640 19° North 297 342 7,100 2,220 Climbing FlightAware
09:42PM 40.6460 -73.6440 31° Northeast 299 344 8,000 2,340 Climbing FlightAware
09:42PM 40.6680 -73.6230 36° Northeast 304 350 8,700 2,040 Climbing FlightAware
09:42PM 40.6940 -73.6040 29° Northeast 309 356 9,400 1,980 Climbing FlightAware
09:43PM 40.7400 -73.5730 27° Northeast 322 371 10,600 1,680 Climbing FlightAware
09:43PM 40.7840 -73.5280 38° Northeast 350 403 11,400 420 Climbing FlightAware
09:44PM 40.8260 -73.4790 41° Northeast 399 459 11,100 840 Descending FlightAware
09:45PM 40.8750 -73.4250 40° Northeast 400 460 12,400 2,340 Climbing FlightAware
09:45PM 40.9061 -73.3913 39° Northeast 377 434 13,300 1,740 Climbing FlightAware ADS-B (KSNC)
09:46PM 40.9653 -73.3237 41° Northeast 380 437 14,300 1,740 Climbing FlightAware ADS-B (KSNC)
09:46PM 41.0178 -73.2635 41° Northeast 385 443 15,800 1,920 Climbing FlightAware ADS-B (KSNC)
09:47PM 41.0764 -73.1952 41° Northeast 395 455 17,000 1,620 Climbing FlightAware ADS-B (KSNC)
09:48PM 41.1324 -73.1316 41° Northeast 405 466 18,100 1,620 Climbing FlightAware ADS-B (KSNC)
09:48PM 41.1792 -73.0777 41° Northeast 413 475 19,000 1,560 Climbing FlightAware ADS-B (KSNC)
09:49PM 41.2247 -73.0260 41° Northeast 419 482 19,800 1,080 Climbing FlightAware ADS-B (KSNC)
09:49PM 41.2720 -72.9710 41° Northeast 439 505 20,100 540 Climbing FlightAware
09:49PM 41.2815 -72.9589 44° Northeast 447 514 20,200 900 Climbing FlightAware ADS-B (KSNC)
09:50PM 41.3543 -72.8722 42° Northeast 461 531 20,900 900 Climbing FlightAware ADS-B (KSNC)
09:51PM 41.4166 -72.8015 40° Northeast 480 552 21,400 840 Climbing FlightAware ADS-B (KSNC)
09:52PM 41.5025 -72.7020 41° Northeast 496 571 22,200 1,080 Climbing FlightAware ADS-B (KSNC)
09:52PM 41.5545 -72.6403 42° Northeast 502 578 22,800 1,200 Climbing FlightAware ADS-B (KSNC)
09:53PM 41.6039 -72.5810 42° Northeast 505 581 23,400 1,200 Climbing FlightAware ADS-B (KSNC)
09:53PM 41.6534 -72.5011 50° Northeast 509 586 24,100 1,200 Climbing FlightAware ADS-B (KSNC)
09:54PM 41.6916 -72.4181 58° Northeast 513 590 24,700 960 Climbing FlightAware ADS-B (KSNC)
09:54PM 41.7409 -72.3080 59° Northeast 519 597 25,300 1,200 Climbing FlightAware ADS-B (KSNC)
09:55PM 41.7775 -72.2255 59° Northeast 515 593 26,100 1,620 Climbing FlightAware ADS-B (KSNC)
09:55PM 41.8200 -72.1300 59° Northeast 509 586 27,100 1,620 Climbing FlightAware ADS-B (KSNC)
09:56PM 41.8674 -72.0231 59° Northeast 504 580 28,100 1,380 Climbing FlightAware ADS-B (KSNC)
09:57PM 41.9116 -71.9239 59° Northeast 504 580 28,900 1,020 Climbing FlightAware ADS-B (KSNC)
09:57PM 41.9500 -71.8440 57° Northeast 507 583 29,300 840 Climbing FlightAware
09:58PM 41.9930 -71.7730 51° Northeast 509 586 29,800 900 Climbing FlightAware
09:58PM 42.0420 -71.7030 47° Northeast 511 588 30,300 840 Climbing FlightAware
09:59PM 42.1008 -71.6168 47° Northeast 512 589 30,800 600 Climbing FlightAware ADS-B (KBOS)
09:59PM 42.1610 -71.5290 47° Northeast 515 593 31,000 120 Climbing FlightAware
10:00PM 42.2170 -71.4470 47° Northeast 513 590 31,000  Level FlightAware
10:01PM 42.2820 -71.3510 48° Northeast 513 590 31,000  Level FlightAware
10:01PM 42.2931 -71.3338 49° Northeast 513 590 31,000  Level FlightAware ADS-B (KBOS)
10:02PM 42.3657 -71.2251 48° Northeast 513 590 31,000  Level FlightAware ADS-B (KBOS)
10:02PM 42.4164 -71.1489 48° Northeast 513 590 31,000  Level FlightAware ADS-B (KBOS)
10:03PM 42.4622 -71.0801 48° Northeast 512 589 31,000  Level FlightAware ADS-B (KBOS)
10:03PM 42.5093 -71.0088 48° Northeast 512 589 31,000  Level FlightAware ADS-B (KBOS)
10:04PM 42.5658 -70.9233 48° Northeast 512 589 31,000  Level FlightAware ADS-B (KBOS)
10:04PM 42.6179 -70.8441 48° Northeast 513 590 31,000  Level FlightAware ADS-B (KBOS)
10:05PM 42.6596 -70.7805 48° Northeast 514 592 31,000  Level FlightAware ADS-B (KBOS)
10:05PM 42.7169 -70.6933 48° Northeast 513 590 31,000  Level FlightAware ADS-B (KBOS)
10:06PM 42.7672 -70.6166 48° Northeast 514 592 31,000  Level FlightAware ADS-B (KBOS)
10:06PM 42.8240 -70.5300 48° Northeast 513 590 31,000  Level FlightAware
10:07PM 42.8380 -70.5080 49° Northeast 514 592 31,000  Level FlightAware ADS-B (KBOS)
10:07PM 42.8949 -70.4201 48° Northeast 514 592 31,000  Level FlightAware ADS-B (KBOS)
10:08PM 42.9442 -70.3438 49° Northeast 513 590 31,000  Level FlightAware ADS-B (KBOS)
10:08PM 42.9940 -70.2670 48° Northeast 513 590 31,000  Level FlightAware
10:09PM 43.0550 -70.1717 49° Northeast 514 592 31,000  Level FlightAware ADS-B (KBOS)
10:09PM 43.1180 -70.0740 49° Northeast 514 592 31,000  Level FlightAware
10:10PM 43.1303 -70.0549 49° Northeast 515 593 31,000  Level FlightAware ADS-B (KBOS)
10:10PM 43.1964 -69.9517 49° Northeast 515 593 31,000  Level FlightAware ADS-B (KBOS)
10:11PM 43.2598 -69.8523 49° Northeast 515 593 31,000  Level FlightAware ADS-B (CYQI)
10:12PM 43.3254 -69.7489 49° Northeast 515 593 31,000  Level FlightAware ADS-B (CYQI)
10:12PM 43.3907 -69.6455 49° Northeast 515 593 31,000  Level FlightAware ADS-B (CYQI)
10:13PM 43.4434 -69.5621 49° Northeast 514 592 31,000  Level FlightAware ADS-B (CYQI)
10:14PM 43.5045 -69.4650 49° Northeast 515 593 31,000  Level FlightAware ADS-B (CYQI)
10:14PM 43.5545 -69.3850 49° Northeast 515 593 31,000  Level FlightAware ADS-B (CYQI)
10:15PM 43.6074 -69.3001 49° Northeast 514 592 31,000  Level FlightAware ADS-B (CYQI)
10:15PM 43.6869 -69.1726 49° Northeast 514 592 31,000  Level FlightAware ADS-B (CYQI)
10:16PM 43.7336 -69.0971 49° Northeast 515 593 31,000  Level FlightAware ADS-B (CYQI)
10:16PM 43.7775 -69.0261 49° Northeast 516 594 31,000  Level FlightAware ADS-B (CYQI)
10:17PM 43.8375 -68.9296 49° Northeast 516 594 31,000  Level FlightAware ADS-B (CYQI)
10:18PM 43.9050 -68.8195 50° Northeast 515 593 31,000  Level FlightAware ADS-B (CYQI)
10:18PM 43.9671 -68.7183 50° Northeast 514 592 31,000  Level FlightAware ADS-B (CYQI)
10:19PM 44.0102 -68.6479 50° Northeast 513 590 31,000  Level FlightAware ADS-B (CYQI)
10:20PM 44.0635 -68.5604 50° Northeast 512 589 31,000  Level FlightAware ADS-B (CYQI)
10:20PM 44.1104 -68.4834 50° Northeast 512 589 31,000  Level FlightAware ADS-B (CYQI)
10:21PM 44.1627 -68.3966 50° Northeast 513 590 31,000  Level FlightAware ADS-B (CYQI)
10:21PM 44.2187 -68.3032 50° Northeast 513 590 31,000  Level FlightAware ADS-B (CYQI)
10:22PM 44.2758 -68.2080 50° Northeast 514 592 31,000  Level FlightAware ADS-B (CYQI)
10:22PM 44.3218 -68.1309 50° Northeast 514 592 31,000  Level FlightAware ADS-B (CYQI)
10:23PM 44.3619 -68.0638 50° Northeast 516 594 31,000  Level FlightAware ADS-B (CYQI)
10:23PM 44.4135 -67.9772 50° Northeast 512 589 31,000  Level FlightAware ADS-B (CYQI)
10:24PM 44.4608 -67.8977 50° Northeast 508 585 31,000  Level FlightAware ADS-B (CYQI)
10:25PM 44.4914 -67.8461 50° Northeast 508 585 31,000  Level FlightAware ADS-B
10:25PM 44.5580 -67.7330 50° Northeast 505 581 31,000  Level FlightAware
10:25PM 44.5654 -67.7214 48° Northeast 506 582 31,000  Level FlightAware ADS-B (CYQI)
10:26PM 44.6050 -67.6540 50° Northeast 506 582 31,000  Level FlightAware
10:26PM 44.6285 -67.6143 50° Northeast 509 586 31,000  Level FlightAware ADS-B (CYQI)
10:26PM 44.6736 -67.5377 50° Northeast 511 588 31,000  Level FlightAware ADS-B (CYQI)
10:27PM 44.7177 -67.4621 51° Northeast 512 589 31,000  Level FlightAware ADS-B (CYQI)
10:27PM 44.7656 -67.3805 50° Northeast 514 592 31,000  Level FlightAware ADS-B (CYQI)
10:28PM 44.8182 -67.2909 50° Northeast 514 592 31,000  Level FlightAware ADS-B (CYQI)
10:29PM 44.8756 -67.1934 50° Northeast 517 595 31,000  Level FlightAware ADS-B (CYQI)
10:29PM 44.9440 -67.0910 47° Northeast 512 589 31,000  Level FlightAware
10:30PM 45.0060 -67.0050 44° Northeast 520 598 31,000  Level FlightAware
10:30PM 45.0650 -66.9230 44° Northeast 522 601 31,000  Level FlightAware
10:31PM 45.1250 -66.8370 45° Northeast 525 604 31,000  Level FlightAware
10:32PM 45.1871 -66.7499 45° Northeast 526 605 31,000  Level FlightAware ADS-B (CYQI)
10:32PM 45.2535 -66.6555 45° Northeast 526 605 31,000  Level FlightAware ADS-B (CYQI)
10:33PM 45.3050 -66.5820 45° Northeast 526 605 31,000  Level FlightAware
10:33PM 45.3276 -66.5496 45° Northeast 527 606 31,000  Level FlightAware ADS-B (CYQI)
10:33PM 45.3771 -66.4783 45° Northeast 528 608 31,000  Level FlightAware ADS-B (CYQI)
10:34PM 45.4341 -66.3963 45° Northeast 530 610 31,000  Level FlightAware ADS-B (CYQI)
10:35PM 45.5009 -66.3002 45° Northeast 533 613 31,000  Level FlightAware ADS-B (CYQI)
10:35PM 45.5470 -66.2330 46° Northeast 528 608 31,000  Level FlightAware
10:35PM 45.5783 -66.1883 45° Northeast 535 616 31,000  Level FlightAware ADS-B (CYQI)
10:36PM 45.6429 -66.0945 45° Northeast 537 618 31,000  Level FlightAware ADS-B (CYQI)
10:37PM 45.7300 -65.9680 45° Northeast 533 613 31,000  Level FlightAware
10:37PM 45.7910 -65.8780 46° Northeast 534 615 31,000  Level FlightAware
10:38PM 45.8510 -65.7900 46° Northeast 536 617 31,000  Level FlightAware
10:39PM 45.9180 -65.6900 46° Northeast 536 617 31,000  Level FlightAware
10:39PM 45.9730 -65.6100 45° Northeast 536 617 31,000  Level FlightAware
10:40PM 46.0250 -65.5310 47° Northeast 536 617 31,000  Level FlightAware
10:41PM 46.0780 -65.4520 46° Northeast 536 617 31,000  Level FlightAware
10:41PM 46.1310 -65.3740 46° Northeast 536 617 31,000  Level FlightAware
10:42PM 46.1830 -65.2950 46° Northeast 536 617 31,000  Level FlightAware
10:42PM 46.2360 -65.2160 46° Northeast 536 617 31,000  Level FlightAware
10:43PM 46.2890 -65.1370 46° Northeast 536 617 31,000  Level FlightAware
10:44PM 46.3410 -65.0580 46° Northeast 536 617 31,000  Level FlightAware
10:44PM 46.3940 -64.9790 46° Northeast 536 617 31,000  Level FlightAware
10:45PM 46.4470 -64.8990 46° Northeast 536 617 31,000  Level FlightAware
10:45PM 46.5010 -64.8180 46° Northeast 536 617 31,000  Level FlightAware
10:46PM 46.5540 -64.7390 46° Northeast 536 617 31,000  Level FlightAware
10:47PM 46.6060 -64.6590 47° Northeast 536 617 31,000  Level FlightAware
10:47PM 46.6610 -64.5780 45° Northeast 536 617 31,000  Level FlightAware
10:48PM 46.7280 -64.4760 46° Northeast 536 617 31,000 1,920 Level FlightAware
10:49PM 46.9500 -64.1167 46° Northeast 530 610 34,000 2,220 Climbing Gander Center
10:49PM 47.0000 -64.0333 49° Northeast 530 610 34,000  Level Moncton Center
10:50PM 47.1167 -63.8500 47° Northeast 530 610 34,000  Level Moncton Center
10:51PM 47.2000 -63.7000 51° Northeast 530 610 34,000  Level Moncton Center
10:52PM 47.3167 -63.5333 44° Northeast 530 610 34,000  Level Moncton Center
10:53PM 47.4167 -63.3833 45° Northeast 540 621 34,000  Level Moncton Center
10:54PM 47.5167 -63.2000 51° Northeast 540 621 34,000  Level Moncton Center
10:55PM 47.6167 -63.0500 45° Northeast 540 621 34,000  Level Moncton Center
10:56PM 47.7000 -62.8833 53° Northeast 540 621 34,000  Level Moncton Center
10:57PM 47.8167 -62.7000 47° Northeast 550 633 34,000  Level Moncton Center
10:58PM 47.9167 -62.5500 45° Northeast 550 633 34,000  Level Moncton Center
10:59PM 48.0167 -62.4000 45° Northeast 550 633 34,000  Level Moncton Center
11:00PM 48.1167 -62.2167 51° Northeast 550 633 34,000  Level Moncton Center
11:01PM 48.2333 -62.0333 46° Northeast 550 633 34,000  Level Moncton Center
11:02PM 48.3167 -61.8500 56° Northeast 550 633 34,000  Level Moncton Center
11:03PM 48.4000 -61.7667 34° Northeast 550 633 34,000  Level Gander Center
11:04PM 48.5000 -61.5667 53° Northeast 550 633 34,000  Level Gander Center
11:05PM 48.6000 -61.4167 45° Northeast 550 633 34,000  Level Gander Center
11:06PM 48.7333 -61.1500 53° Northeast 550 633 34,000  Level Moncton Center
11:07PM 48.8167 -60.9833 53° Northeast 550 633 34,000  Level Moncton Center
11:08PM 48.9333 -60.8333 40° Northeast 550 633 34,000  Level Moncton Center
11:14PM 49.4700 -59.8560 40° Northeast 556 640 34,000  Level FlightAware
11:14PM 49.5210 -59.7630 50° Northeast 556 640 34,000  Level FlightAware
11:15PM 49.5710 -59.6680 51° Northeast 556 640 34,000  Level FlightAware
11:15PM 49.6300 -59.5580 50° Northeast 555 639 34,000  Level FlightAware
11:16PM 49.6980 -59.4290 51° Northeast 557 641 34,000  Level FlightAware
11:17PM 49.7530 -59.3270 50° Northeast 557 641 34,000  Level FlightAware
11:17PM 49.8040 -59.2340 50° Northeast 557 641 34,000  Level FlightAware
11:18PM 49.8540 -59.1400 50° Northeast 557 641 34,000  Level FlightAware
11:19PM 49.9050 -59.0460 50° Northeast 557 641 34,000  Level FlightAware
11:19PM 49.9390 -58.9840 50° Northeast 557 641 34,000  Level FlightAware
11:20PM 50.0300 -58.8020 52° Northeast 558 642 34,000  Level FlightAware
11:20PM 50.0940 -58.6820 50° Northeast 560 644 34,000  Level FlightAware
11:21PM 50.1610 -58.5510 51° Northeast 559 643 34,000  Level FlightAware
11:21PM 50.2080 -58.4610 51° Northeast 559 643 34,000  Level FlightAware
11:22PM 50.2730 -58.3350 51° Northeast 559 643 34,000  Level FlightAware
11:23PM 50.3250 -58.2310 52° Northeast 561 646 34,000  Level FlightAware
11:23PM 50.3920 -58.1010 51° Northeast 562 647 34,000  Level FlightAware
11:24PM 50.4430 -58.0000 52° Northeast 564 649 34,000  Level FlightAware
11:25PM 50.5110 -57.8680 51° Northeast 564 649 34,000  Level FlightAware
11:25PM 50.5610 -57.7710 51° Northeast 564 649 34,000  Level FlightAware
11:26PM 50.6110 -57.6730 51° Northeast 564 649 34,000  Level FlightAware
11:26PM 50.6610 -57.5750 51° Northeast 564 649 34,000  Level FlightAware
11:27PM 50.7120 -57.4770 51° Northeast 564 649 34,000  Level FlightAware
11:28PM 50.7620 -57.3790 51° Northeast 564 649 34,000  Level FlightAware
11:28PM 50.8120 -57.2810 51° Northeast 564 649 34,000  Level FlightAware
11:29PM 50.8620 -57.1830 51° Northeast 564 649 34,000  Level FlightAware
11:29PM 50.9140 -57.0820 51° Northeast 564 649 34,000  Level FlightAware
11:30PM 50.9640 -56.9830 51° Northeast 564 649 34,000  Level FlightAware
11:31PM 51.0140 -56.8840 51° Northeast 564 649 34,000  Level FlightAware
11:31PM 51.0620 -56.7910 51° Northeast 564 649 34,000  Level FlightAware
11:32PM 51.1120 -56.6920 51° Northeast 564 649 34,000  Level FlightAware
11:32PM 51.1640 -56.5910 51° Northeast 564 649 34,000  Level FlightAware
11:33PM 51.2140 -56.4920 51° Northeast 564 649 34,000  Level FlightAware
11:34PM 51.2660 -56.3900 51° Northeast 564 649 34,000  Level FlightAware
11:35PM 51.5000 -55.7167 51° Northeast 560 644 34,000 120 Level Gander Center
11:36PM 51.5500 -55.5000 70° East 570 656 34,300 480 Climbing Gander Center
11:37PM 51.6333 -55.2667 60° Northeast 580 667 35,000 300 Climbing Gander Center
11:38PM 51.7000 -55.0500 64° Northeast 570 656 35,000  Level Gander Center
11:39PM 51.7833 -54.7833 63° Northeast 570 656 35,000  Level Gander Center
11:40PM 51.8333 -54.5833 68° East 570 656 35,000  Level Gander Center
11:41PM 51.9000 -54.3333 67° East 560 644 35,000  Level Gander Center
11:42PM 51.9833 -54.1333 56° Northeast 560 644 35,000  Level Gander Center
11:43PM 52.0500 -53.9000 65° Northeast 560 644 35,000  Level Gander Center
11:44PM 52.1167 -53.6500 66° East 560 644 35,000  Level Gander Center
11:45PM 52.1833 -53.4500 61° Northeast 560 644 35,000  Level Gander Center
11:46PM 52.2333 -53.1833 73° East 570 656 35,000  Level Gander Center
11:47PM 52.3000 -52.9500 65° Northeast 570 656 35,000  Level Gander Center
11:48PM 52.3500 -52.7333 69° East 560 644 35,000  Level Gander Center
11:49PM 52.4500 -52.3500 67° East 490 564 35,000  Level Gander Center
11:50PM 52.5167 -52.1167 65° Northeast 570 656 35,000  Level Gander Center
11:51PM 52.5500 -51.8500 78° East 570 656 35,000  Level Gander Center
11:52PM 52.6167 -51.6167 65° Northeast 570 656 35,000  Level Gander Center
11:53PM 52.6667 -51.3833 70° East 570 656 35,000  Level Gander Center
11:55PM 52.7249 -51.1480 68° East  Level FlightAware Approximate
12:02AM 53.0597 -49.5702 77° East  Level FlightAware Approximate
12:03AM 53.0915 -49.3357 77° East  Level FlightAware Approximate
12:03AM 53.0000 -50.0000 76° East 529 609 35,000  Level ETMS Enhanced Traffic Management System
12:04AM 53.1229 -49.1009 77° East  Level FlightAware Approximate
12:05AM 53.1538 -48.8657 78° East  Level FlightAware Approximate
12:06AM 53.1848 -48.6304 77° East  Level FlightAware Approximate
12:07AM 53.2159 -48.3950 77° East  Level FlightAware Approximate
12:08AM 53.2464 -48.1592 78° East  Level FlightAware Approximate
12:09AM 53.3203 -47.6073 78° East 529 609 35,000  Level FlightAware Transoceanic
12:10AM 53.3497 -47.3661 79° East 529 609 35,000  Level FlightAware Transoceanic
12:11AM 53.3786 -47.1246 79° East 529 609 35,000  Level FlightAware Transoceanic
12:12AM 53.4070 -46.8828 79° East 529 609 35,000  Level FlightAware Transoceanic
12:13AM 53.4349 -46.6406 79° East 529 609 35,000  Level FlightAware Transoceanic
12:14AM 53.4623 -46.3982 79° East 529 609 35,000  Level FlightAware Transoceanic
12:15AM 53.4893 -46.1554 80° East 529 609 35,000  Level FlightAware Transoceanic
12:16AM 53.5157 -45.9123 80° East 529 609 35,000  Level FlightAware Transoceanic
12:17AM 53.5417 -45.6689 80° East 529 609 35,000  Level FlightAware Transoceanic
12:18AM 53.5671 -45.4252 80° East 529 609 35,000  Level FlightAware Transoceanic
12:19AM 53.5921 -45.1812 80° East 529 609 35,000  Level FlightAware Transoceanic
12:20AM 53.6165 -44.9370 81° East 529 609 35,000  Level FlightAware Transoceanic
12:21AM 53.6405 -44.6924 81° East 529 609 35,000  Level FlightAware Transoceanic
12:22AM 53.6640 -44.4476 81° East 529 609 35,000  Level FlightAware Transoceanic
12:23AM 53.6869 -44.2025 81° East 529 609 35,000  Level FlightAware Transoceanic
12:24AM 53.7094 -43.9571 81° East 529 609 35,000  Level FlightAware Transoceanic
12:25AM 53.7314 -43.7115 82° East 529 609 35,000  Level FlightAware Transoceanic
12:26AM 53.7528 -43.4657 82° East 529 609 35,000  Level FlightAware Transoceanic
12:27AM 53.7738 -43.2196 82° East 529 609 35,000  Level FlightAware Transoceanic
12:28AM 53.7942 -42.9732 82° East 529 609 35,000  Level FlightAware Transoceanic
12:29AM 53.8142 -42.7266 82° East 529 609 35,000  Level FlightAware Transoceanic
12:30AM 53.8336 -42.4798 82° East 529 609 35,000  Level FlightAware Transoceanic
12:31AM 53.8526 -42.2327 83° East 529 609 35,000  Level FlightAware Transoceanic
12:32AM 53.8710 -41.9855 83° East 529 609 35,000  Level FlightAware Transoceanic
12:33AM 53.8889 -41.7380 83° East 529 609 35,000  Level FlightAware Transoceanic
12:34AM 53.9063 -41.4903 83° East 529 609 35,000  Level FlightAware Transoceanic
12:35AM 53.9232 -41.2424 83° East 529 609 35,000  Level FlightAware Transoceanic
12:36AM 53.9396 -40.9943 84° East 529 609 35,000  Level FlightAware Transoceanic
12:37AM 53.9554 -40.7460 84° East 529 609 35,000  Level FlightAware Transoceanic
12:38AM 53.9708 -40.4975 84° East 529 609 35,000  Level FlightAware Transoceanic
12:39AM 53.9857 -40.2488 84° East 529 609 35,000  Level FlightAware Transoceanic
12:40AM 53.9997 -40.0043 84° East  Level FlightAware Approximate
12:41AM 54.0136 -39.7597 84° East  Level FlightAware Approximate
12:42AM 54.0096 -39.7636 86° East  Level FlightAware Approximate
12:42AM 54.0000 -40.0000 86° East 528 608 35,000  Level ETMS Enhanced Traffic Management System
12:43AM 54.0191 -39.5183 86° East  Level FlightAware Approximate
12:44AM 54.0276 -39.2847 86° East  Level FlightAware Approximate
12:45AM 54.0357 -39.0510 87° East  Level FlightAware Approximate
12:46AM 54.0434 -38.8173 87° East  Level FlightAware Approximate
12:47AM 54.0505 -38.5834 87° East  Level FlightAware Approximate
12:48AM 54.0724 -37.7532 88° East 528 608 35,000  Level FlightAware Transoceanic
12:49AM 54.0778 -37.5031 88° East 528 608 35,000  Level FlightAware Transoceanic
12:50AM 54.0828 -37.2530 88° East 528 608 35,000  Level FlightAware Transoceanic
12:51AM 54.0872 -37.0028 88° East 528 608 35,000  Level FlightAware Transoceanic
12:52AM 54.0911 -36.7526 89° East 528 608 35,000  Level FlightAware Transoceanic
12:53AM 54.0945 -36.5023 89° East 528 608 35,000  Level FlightAware Transoceanic
12:54AM 54.0973 -36.2519 89° East 528 608 35,000  Level FlightAware Transoceanic
12:55AM 54.0997 -36.0016 89° East 528 608 35,000  Level FlightAware Transoceanic
12:56AM 54.1015 -35.7512 89° East 528 608 35,000  Level FlightAware Transoceanic
12:57AM 54.1028 -35.5008 90° East 528 608 35,000  Level FlightAware Transoceanic
12:58AM 54.1035 -35.2504 90° East 528 608 35,000  Level FlightAware Transoceanic
12:59AM 54.1038 -35.0000 90° East 528 608 35,000  Level FlightAware Transoceanic
01:00AM 54.1035 -34.7496 90° East 528 608 35,000  Level FlightAware Transoceanic
01:01AM 54.1028 -34.4992 90° East 528 608 35,000  Level FlightAware Transoceanic
01:02AM 54.1015 -34.2488 91° East 528 608 35,000  Level FlightAware Transoceanic
01:03AM 54.0997 -33.9984 91° East 528 608 35,000  Level FlightAware Transoceanic
01:04AM 54.0973 -33.7481 91° East 528 608 35,000  Level FlightAware Transoceanic
01:05AM 54.0945 -33.4977 91° East 528 608 35,000  Level FlightAware Transoceanic
01:06AM 54.0911 -33.2474 91° East 528 608 35,000  Level FlightAware Transoceanic
01:07AM 54.0872 -32.9972 92° East 528 608 35,000  Level FlightAware Transoceanic
01:08AM 54.0828 -32.7470 92° East 528 608 35,000  Level FlightAware Transoceanic
01:09AM 54.0778 -32.4969 92° East 528 608 35,000  Level FlightAware Transoceanic
01:10AM 54.0724 -32.2468 92° East 528 608 35,000  Level FlightAware Transoceanic
01:11AM 54.0664 -31.9968 92° East 528 608 35,000  Level FlightAware Transoceanic
01:12AM 54.0599 -31.7469 93° East 528 608 35,000  Level FlightAware Transoceanic
01:13AM 54.0529 -31.4970 93° East 528 608 35,000  Level FlightAware Transoceanic
01:14AM 54.0454 -31.2473 93° East 528 608 35,000  Level FlightAware Transoceanic
01:15AM 54.0373 -30.9976 93° East 528 608 35,000  Level FlightAware Transoceanic
01:16AM 54.0288 -30.7480 93° East 528 608 35,000  Level FlightAware Transoceanic
01:17AM 54.0197 -30.4986 94° East 528 608 35,000  Level FlightAware Transoceanic
01:18AM 54.0101 -30.2492 94° East 528 608 35,000  Level FlightAware Transoceanic
01:19AM 54.0007 -30.0158 94° East  Level FlightAware Approximate
01:20AM 53.9907 -29.7826 94° East  Level FlightAware Approximate
01:21AM 53.9876 -29.7990 96° East  Level FlightAware Approximate
01:22AM 53.9728 -29.5665 96° East  Level FlightAware Approximate
01:22AM 54.0000 -30.0000 95° East 504 580 35,000  Level ETMS Enhanced Traffic Management System
01:23AM 53.9575 -29.3343 96° East  Level FlightAware Approximate
01:24AM 53.9418 -29.1025 96° East  Level FlightAware Approximate
01:25AM 53.9257 -28.8710 97° East  Level FlightAware Approximate
01:26AM 53.9091 -28.6396 97° East  Level FlightAware Approximate
01:27AM 53.8921 -28.4085 97° East  Level FlightAware Approximate
01:28AM 53.8777 -28.1066 97° East 504 580 35,000  Level FlightAware Transoceanic
01:29AM 53.8603 -27.8708 97° East 504 580 35,000  Level FlightAware Transoceanic
01:30AM 53.8425 -27.6351 97° East 504 580 35,000  Level FlightAware Transoceanic
01:31AM 53.8242 -27.3997 98° East 504 580 35,000  Level FlightAware Transoceanic
01:32AM 53.8054 -27.1644 98° East 504 580 35,000  Level FlightAware Transoceanic
01:33AM 53.7862 -26.9294 98° East 504 580 35,000  Level FlightAware Transoceanic
01:34AM 53.7665 -26.6946 98° East 504 580 35,000  Level FlightAware Transoceanic
01:35AM 53.7464 -26.4600 98° East 504 580 35,000  Level FlightAware Transoceanic
01:36AM 53.7258 -26.2256 99° East 504 580 35,000  Level FlightAware Transoceanic
01:37AM 53.7047 -25.9915 99° East 504 580 35,000  Level FlightAware Transoceanic
01:38AM 53.6832 -25.7576 99° East 504 580 35,000  Level FlightAware Transoceanic
01:39AM 53.6613 -25.5239 99° East 504 580 35,000  Level FlightAware Transoceanic
01:40AM 53.6389 -25.2905 99° East 504 580 35,000  Level FlightAware Transoceanic
01:41AM 53.6160 -25.0574 99° East 504 580 35,000  Level FlightAware Transoceanic
01:42AM 53.5927 -24.8245 100° East 504 580 35,000  Level FlightAware Transoceanic
01:43AM 53.5689 -24.5918 100° East 504 580 35,000  Level FlightAware Transoceanic
01:44AM 53.5447 -24.3594 100° East 504 580 35,000  Level FlightAware Transoceanic
01:45AM 53.5200 -24.1273 100° East 504 580 35,000  Level FlightAware Transoceanic
01:46AM 53.4949 -23.8955 100° East 504 580 35,000  Level FlightAware Transoceanic
01:47AM 53.4693 -23.6639 101° East 504 580 35,000  Level FlightAware Transoceanic
01:48AM 53.4433 -23.4326 101° East 504 580 35,000  Level FlightAware Transoceanic
01:49AM 53.4168 -23.2017 101° East 504 580 35,000  Level FlightAware Transoceanic
01:50AM 53.3899 -22.9709 101° East 504 580 35,000  Level FlightAware Transoceanic
01:51AM 53.3625 -22.7405 101° East 504 580 35,000  Level FlightAware Transoceanic
01:52AM 53.3347 -22.5104 102° East 504 580 35,000  Level FlightAware Transoceanic
01:53AM 53.3065 -22.2806 102° East 504 580 35,000  Level FlightAware Transoceanic
01:54AM 53.2778 -22.0511 102° East 504 580 35,000  Level FlightAware Transoceanic
01:55AM 53.2487 -21.8219 102° East 504 580 35,000  Level FlightAware Transoceanic
01:56AM 53.2191 -21.5930 102° East 504 580 35,000  Level FlightAware Transoceanic
01:57AM 53.1891 -21.3645 102° East 504 580 35,000  Level FlightAware Transoceanic
01:58AM 53.1587 -21.1362 103° East 504 580 35,000  Level FlightAware Transoceanic
01:59AM 53.1278 -20.9083 103° East 504 580 35,000  Level FlightAware Transoceanic
02:00AM 53.0965 -20.6807 103° East 504 580 35,000  Level FlightAware Transoceanic
02:01AM 53.0648 -20.4535 103° East 504 580 35,000  Level FlightAware Transoceanic
02:02AM 53.0326 -20.2266 103° East 504 580 35,000  Level FlightAware Transoceanic
02:03AM 53.0007 -20.0047 103° East  Level FlightAware Approximate
02:04AM 52.9686 -19.7830 103° East  Level FlightAware Approximate
02:05AM 52.9993 -19.7815 90° East  Level FlightAware Approximate
02:06AM 52.9981 -19.5534 90° East  Level FlightAware Approximate
02:07AM 52.9965 -19.3254 91° East  Level FlightAware Approximate
02:08AM 52.9945 -19.0974 91° East  Level FlightAware Approximate
02:09AM 52.9920 -18.8694 91° East  Level FlightAware Approximate
02:10AM 52.9891 -18.6414 91° East  Level FlightAware Approximate
02:11AM 52.9858 -18.4134 91° East  Level FlightAware Approximate
02:12AM 52.9820 -18.1855 91° East  Level FlightAware Approximate
02:13AM 52.9778 -17.9576 92° East  Level FlightAware Approximate
02:14AM 52.9731 -17.7298 92° East  Level FlightAware Approximate
02:15AM 52.9680 -17.5021 92° East  Level FlightAware Approximate
02:16AM 52.9625 -17.2743 92° East  Level FlightAware Approximate
02:17AM 52.9565 -17.0467 92° East  Level FlightAware Approximate
02:18AM 52.9501 -16.8191 93° East  Level FlightAware Approximate
02:19AM 52.9433 -16.5916 93° East  Level FlightAware Approximate
02:20AM 52.9361 -16.3641 93° East  Level FlightAware Approximate
02:21AM 52.9284 -16.1367 93° East  Level FlightAware Approximate
02:22AM 52.9202 -15.9095 93° East  Level FlightAware Approximate
02:23AM 52.9117 -15.6823 93° East  Level FlightAware Approximate
02:24AM 52.9027 -15.4551 94° East  Level FlightAware Approximate
02:25AM 52.8932 -15.2281 94° East  Level FlightAware Approximate
02:26AM 52.8834 -15.0012 94° East  Level FlightAware Approximate
02:27AM 52.8739 -14.7743 94° East  Level FlightAware Approximate
02:28AM 52.8641 -14.5475 94° East  Level FlightAware Approximate
02:29AM 52.8538 -14.3208 94° East  Level FlightAware Approximate
02:30AM 52.8430 -14.0942 94° East  Level FlightAware Approximate
02:31AM 52.8319 -13.8678 95° East  Level FlightAware Approximate
02:32AM 52.8203 -13.6414 95° East  Level FlightAware Approximate
02:33AM 52.8082 -13.4152 95° East  Level FlightAware Approximate
02:34AM 52.7958 -13.1890 95° East  Level FlightAware Approximate
02:35AM 52.7829 -12.9631 95° East  Level FlightAware Approximate
02:36AM 52.7696 -12.7376 95° East  Level FlightAware Approximate
02:36AM 52.8910 -12.9100 95° East 496 571 35,000  Level FlightAware
02:36AM 52.8790 -12.7840 99° East 495 570 35,000  Level FlightAware
02:37AM 52.8650 -12.6270 98° East 494 568 35,000  Level FlightAware
02:38AM 52.8520 -12.4970 99° East 494 568 35,000  Level FlightAware
02:38AM 52.8400 -12.3620 98° East 496 571 35,000  Level FlightAware
02:39AM 52.8280 -12.2190 98° East 496 571 35,000  Level FlightAware
02:39AM 52.8170 -12.0850 98° East 492 566 35,000  Level FlightAware
02:40AM 52.8060 -11.9370 97° East 491 565 35,000  Level FlightAware
02:40AM 52.7980 -11.8250 97° East 492 566 35,000  Level FlightAware
02:41AM 52.7880 -11.6950 97° East 493 567 35,000  Level FlightAware
02:42AM 52.7750 -11.5450 98° East 494 568 35,000  Level FlightAware
02:42AM 52.7660 -11.4350 98° East 492 566 35,000  Level FlightAware
02:43AM 52.7550 -11.3040 98° East 490 564 35,000  Level FlightAware
02:43AM 52.7430 -11.1750 99° East 492 566 35,000  Level FlightAware
02:44AM 52.7310 -11.0490 99° East 493 567 35,000  Level FlightAware
02:45AM 52.7180 -10.9160 99° East 493 567 35,000  Level FlightAware
02:45AM 52.7050 -10.7820 99° East 495 570 35,000  Level FlightAware
02:46AM 52.6910 -10.6370 99° East 495 570 35,000  Level FlightAware
02:46AM 52.6800 -10.5230 99° East 495 570 35,000  Level FlightAware
02:47AM 52.6670 -10.3940 99° East 495 570 35,000  Level FlightAware
02:47AM 52.6530 -10.2660 100° East 496 571 35,000  Level FlightAware
02:48AM 52.6380 -10.1150 99° East 493 567 35,000  Level FlightAware
02:49AM 52.6270 -10.0100 100° East 490 564 35,000  Level FlightAware
02:49AM 52.6130 -9.8790 100° East 487 560 35,000  Level FlightAware
02:50AM 52.5990 -9.7530 100° East 482 555 35,000  Level FlightAware
02:51AM 52.5830 -9.6030 100° East 476 548 35,000  Level FlightAware
02:51AM 52.5808 -9.5887 104° East 476 548 35,000  Level FlightAware ADS-B
02:51AM 52.5720 -9.5080 100° East 466 536 35,000  Level FlightAware ADS-B
02:52AM 52.5513 -9.3232 100° East 466 536 35,000  Level FlightAware ADS-B
02:53AM 52.5340 -9.1670 100° East 472 543 35,000  Level FlightAware
02:53AM 52.5321 -9.1504 100° East 474 545 35,000  Level FlightAware ADS-B
02:53AM 52.5177 -9.0238 100° East 475 547 35,000  Level FlightAware ADS-B
02:53AM 52.5187 -8.9551 100° East 482 555 35,000  Level FlightAware UK
02:54AM 52.5104 -8.9604 101° East 481 554 35,000  Level FlightAware ADS-B
02:54AM 52.4900 -8.7840 101° East 488 562 35,000  Level FlightAware ADS-B
02:55AM 52.4738 -8.6469 101° East 492 566 35,000  Level FlightAware ADS-B
02:55AM 52.4664 -8.5831 101° East 492 566 35,000  Level FlightAware ADS-B
02:56AM 52.4480 -8.4270 101° East 495 570 35,000  Level FlightAware
02:56AM 52.4385 -8.3511 102° East 494 568 35,000  Level FlightAware ADS-B
02:57AM 52.4270 -8.2565 101° East 494 568 35,000  Level FlightAware ADS-B
02:57AM 52.4156 -8.0784 101° East 500 575 35,000  Level FlightAware UK
02:58AM 52.4065 -8.0885 101° East 493 567 35,000  Level FlightAware ADS-B
02:58AM 52.3930 -7.9814 102° East 493 567 35,000  Level FlightAware ADS-B
02:59AM 52.3781 -7.8658 102° East 493 567 35,000  Level FlightAware ADS-B
02:59AM 52.3587 -7.7225 102° East 492 566 35,000  Level FlightAware ADS-B
03:00AM 52.3351 -7.6076 109° East 489 563 35,000  Level FlightAware ADS-B
03:00AM 52.2952 -7.4480 109° East 494 568 35,000  Level FlightAware UK
03:01AM 52.2760 -7.4410 109° East 490 564 35,000  Level FlightAware
03:01AM 52.2682 -7.3998 107° East 492 566 35,000  Level FlightAware ADS-B
03:01AM 52.3416 -7.6316 297° West 491 565 35,000  Level FlightAware ADS-B (EIDW / DUB)
03:01AM 52.2615 -7.3367 114° Southeast 494 568 35,000  Level FlightAware ADS-B
03:02AM 52.2485 -7.2189 100° East 494 568 35,000  Level FlightAware ADS-B (EIDW / DUB)
03:02AM 52.2358 -7.1102 101° East 492 566 35,000  Level FlightAware ADS-B (EIDW / DUB)
03:03AM 52.2210 -6.9860 101° East 488 562 35,000  Level FlightAware
03:03AM 52.2169 -6.9488 100° East 488 562 35,000  Level FlightAware ADS-B (EIDW / DUB)
03:03AM 52.2046 -6.8425 101° East 486 559 35,000  Level FlightAware ADS-B (EIDW / DUB)
03:04AM 52.1920 -6.7320 100° East 486 559 35,000  Level FlightAware
03:04AM 52.1875 -6.6940 101° East 485 558 35,000  Level FlightAware ADS-B (EIDW / DUB)
03:04AM 52.1800 -6.6297 101° East 485 558 35,000  Level FlightAware ADS-B (EIDW / DUB)
03:05AM 52.1661 -6.5099 101° East 486 559 35,000  Level FlightAware ADS-B
03:06AM 52.1490 -6.3670 101° East 489 563 35,000  Level FlightAware
03:06AM 52.1330 -6.2360 101° East 491 565 35,000  Level FlightAware
03:07AM 52.1229 -6.1490 101° East 492 566 35,000  Level FlightAware ADS-B (EGCW)
03:07AM 52.1106 -5.9551 101° East 498 573 35,000  Level FlightAware UK
03:07AM 52.1022 -5.9766 101° East 491 565 35,000  Level FlightAware ADS-B (EGCW)
03:08AM 52.0900 -5.8760 101° East 490 564 35,000  Level FlightAware
03:08AM 52.0826 -5.8186 102° East 491 565 35,000  Level FlightAware ADS-B (EGCW)
03:09AM 52.0707 -5.6299 102° East 496 571 35,000  Level FlightAware UK
03:09AM 52.0581 -5.6209 102° East 490 564 35,000  Level FlightAware ADS-B (EGCW)
03:10AM 52.0439 -5.5099 102° East 491 565 35,000  Level FlightAware ADS-B (EGCW)
03:10AM 52.0254 -5.3651 102° East 491 565 35,000  Level FlightAware ADS-B (EGCW)
03:11AM 52.0117 -5.2577 102° East 491 565 35,000  Level FlightAware ADS-B (EGCW)
03:11AM 52.0104 -5.2473 102° East 491 565 35,000  Level FlightAware ADS-B (EGCW)
03:11AM 52.0810 -5.8038 282° West 491 565 35,000  Level FlightAware ADS-B
03:11AM 51.9950 -5.1330 102° East 491 565 35,000  Level FlightAware
03:12AM 51.9759 -4.9737 101° East 495 570 35,000  Level FlightAware ADS-B
03:13AM 51.9637 -4.8611 100° East 497 572 35,000  Level FlightAware ADS-B (EGCW)
03:13AM 52.0191 -5.3155 281° West 495 570 35,000  Level FlightAware ADS-B (EGDX / DGX)
03:14AM 51.9448 -4.6216 100° East 498 573 35,000  Level FlightAware ADS-B (EGCW)
03:14AM 51.9344 -4.5009 98° East 496 571 35,000  Level FlightAware ADS-B
03:14AM 51.9315 -4.4685 98° East 497 572 35,000  Level FlightAware ADS-B (EGCW)
03:14AM 51.9276 -4.4276 99° East 498 573 35,000  Level FlightAware ADS-B (EGCW)
03:15AM 51.9239 -4.3876 99° East 496 571 35,000  Level FlightAware ADS-B
03:15AM 51.9217 -4.3628 98° East 498 573 35,000  Level FlightAware ADS-B (EGDX / DGX)
03:15AM 51.9217 -4.3628 98° East 497 572 35,000  Level FlightAware ADS-B (EGDX / DGX)
03:16AM 51.8961 -4.0998 99° East 494 568 35,000  Level FlightAware ADS-B
03:17AM 51.8844 -3.9790 99° East 495 570 35,000  Level FlightAware ADS-B (EGCW)
03:17AM 51.8959 -4.0981 279° West 495 570 35,000  Level FlightAware ADS-B (EGDX / DGX)
03:17AM 51.8773 -3.9030 99° East 495 570 35,000  Level FlightAware ADS-B (EGDM)
03:17AM 51.8674 -3.7957 98° East 495 570 35,000  Level FlightAware ADS-B (EGCW)
03:18AM 51.8636 -3.7532 98° East 495 570 35,000  Level FlightAware ADS-B (EGCW)
03:18AM 51.8611 -3.7264 99° East 495 570 35,000  Level FlightAware ADS-B (EGCW)
03:18AM 51.8584 -3.6962 98° East 494 568 35,000  Level FlightAware ADS-B (EGCW)
03:19AM 51.8416 -3.5138 98° East 495 570 35,000  Level FlightAware ADS-B (EGCW)
03:19AM 51.8584 -3.6962 279° West 495 570 35,000  Level FlightAware ADS-B (EGCW)
03:19AM 51.8293 -3.3828 98° East 495 570 35,000  Level FlightAware ADS-B (EGDX / DGX)
03:20AM 51.8228 -3.3150 99° East 494 568 35,000  Level FlightAware ADS-B
03:20AM 51.8156 -3.2414 99° East 494 568 35,000  Level FlightAware ADS-B
03:20AM 51.8131 -3.2153 99° East 494 568 35,000  Level FlightAware ADS-B (EGDX / DGX)
03:21AM 51.8175 -3.2597 279° West 496 571 35,000  Level FlightAware ADS-B (EGCW)
03:21AM 51.7929 -3.0083 99° East 496 571 35,000  Level FlightAware ADS-B
03:21AM 51.7916 -2.9949 99° East 497 572 35,000  Level FlightAware ADS-B (EGDM)
03:21AM 51.7825 -2.8999 99° East 497 572 35,000  Level FlightAware ADS-B
03:22AM 51.7788 -2.8630 99° East 497 572 35,000  Level FlightAware ADS-B
03:22AM 51.7701 -2.7715 99° East 499 574 35,000  Level FlightAware ADS-B
03:22AM 51.7649 -2.7176 99° East 499 574 35,000  Level FlightAware ADS-B
03:23AM 51.7591 -2.6592 99° East 498 573 35,000  Level FlightAware ADS-B
03:23AM 51.7511 -2.5775 99° East 500 575 35,000  Level FlightAware ADS-B
03:24AM 51.7354 -2.4246 99° East 501 577 35,000  Level FlightAware ADS-B (EGDM)
03:24AM 51.7235 -2.3112 100° East 501 577 35,000  Level FlightAware ADS-B
03:25AM 51.7114 -2.1948 100° East 502 578 35,000  Level FlightAware ADS-B (EGCW)
03:25AM 51.6999 -2.0872 100° East 501 577 35,000  Level FlightAware ADS-B
03:26AM 51.6929 -2.0219 100° East 502 578 35,000  Level FlightAware ADS-B
03:26AM 51.6844 -1.9446 100° East 501 577 35,000  Level FlightAware ADS-B (EGDX / DGX)
03:26AM 51.6741 -1.8499 100° East 503 579 35,000  Level FlightAware ADS-B (EGDM)
03:27AM 51.6604 -1.7257 100° East 503 579 35,000  Level FlightAware ADS-B (EGDM)
03:27AM 51.6475 -1.6106 100° East 502 578 35,000  Level FlightAware ADS-B
03:28AM 51.6350 -1.5002 100° East 503 579 35,000  Level FlightAware ADS-B (EGDM)
03:28AM 51.6224 -1.3895 100° East 503 579 35,000  Level FlightAware ADS-B (EGDM)
03:29AM 51.6097 -1.2797 100° East 505 581 35,000  Level FlightAware ADS-B
03:29AM 51.6059 -1.2467 101° East 503 579 35,000  Level FlightAware ADS-B (LSXS)
03:29AM 51.5926 -1.1318 100° East 504 580 35,000  Level FlightAware ADS-B (LSXS)
03:30AM 51.5841 -1.0590 101° East 504 580 35,000  Level FlightAware ADS-B (LSXS)
03:30AM 51.5802 -1.0254 101° East 504 580 35,000  Level FlightAware ADS-B (LSXS)
03:30AM 51.5679 -0.9203 101° East 507 583 35,000  Level FlightAware ADS-B
03:31AM 51.5538 -0.8021 101° East 506 582 35,000  Level FlightAware ADS-B
03:31AM 51.5398 -0.6859 101° East 507 583 35,000  Level FlightAware ADS-B (EGDM)
03:32AM 51.5225 -0.5411 101° East 507 583 35,000  Level FlightAware ADS-B (EGDM)
03:33AM 51.5089 -0.4293 101° East 508 585 35,000  Level FlightAware ADS-B (EGDM)
03:33AM 51.4956 -0.3208 101° East 509 586 35,000  Level FlightAware ADS-B
03:34AM 51.4810 -0.2024 101° East 509 586 35,000  Level FlightAware ADS-B (EGDM)
03:34AM 51.4669 -0.0893 101° East 509 586 35,000  Level FlightAware ADS-B
03:35AM 51.4539 0.0139 101° East 509 586 35,000  Level FlightAware ADS-B
03:35AM 51.4389 0.1327 101° East 510 587 35,000  Level FlightAware ADS-B
03:35AM 51.4358 0.1571 102° East 510 587 35,000  Level FlightAware ADS-B (EGDM)
03:36AM 51.4194 0.2834 102° East 510 587 35,000  Level FlightAware ADS-B
03:36AM 51.4043 0.3999 102° East 511 588 35,000  Level FlightAware ADS-B
03:37AM 51.3992 0.4382 102° East 509 586 35,000  Level FlightAware ADS-B (LSXS)
03:37AM 51.3926 0.4900 102° East 511 588 35,000  Level FlightAware ADS-B
03:37AM 51.3860 0.5399 102° East 509 586 35,000  Level FlightAware ADS-B (LSXS)
03:37AM 51.3816 0.5735 102° East 511 588 35,000  Level FlightAware ADS-B
03:37AM 51.3746 0.6274 102° East 509 586 35,000  Level FlightAware ADS-B (EGMD / LYX)
03:38AM 51.3659 0.6944 102° East 511 588 35,000  Level FlightAware ADS-B
03:38AM 51.3591 0.7459 102° East 511 588 35,000  Level FlightAware ADS-B
03:38AM 51.3498 0.8149 102° East 510 587 35,000  Level FlightAware ADS-B (EGMD / LYX)
03:38AM 51.3450 0.8514 102° East 509 586 35,000  Level FlightAware ADS-B (EGMD / LYX)
03:39AM 51.3406 0.8846 102° East 511 588 35,000  Level FlightAware ADS-B
03:39AM 51.3256 0.9985 102° East 509 586 35,000  Level FlightAware ADS-B (EGMD / LYX)
03:40AM 51.3103 1.1120 102° East 509 586 35,000  Level FlightAware ADS-B (EGMD / LYX)
03:40AM 51.2958 1.2212 102° East 508 585 35,000  Level FlightAware ADS-B (EGMD / LYX)
03:41AM 51.2812 1.3319 102° East 509 586 35,000  Level FlightAware ADS-B (EGMD / LYX)
03:41AM 51.2661 1.4424 102° East 508 585 35,000  Level FlightAware ADS-B (EGMD / LYX)
03:42AM 51.2477 1.5766 102° East 509 586 35,000  Level FlightAware ADS-B (LSXS)
03:42AM 51.2323 1.6891 102° East 510 587 35,000  Level FlightAware ADS-B (LSXS)
03:43AM 51.2169 1.7996 102° East 509 586 35,000  Level FlightAware ADS-B (LSXS)
03:43AM 51.2017 1.9093 102° East 509 586 35,000  Level FlightAware ADS-B (LSXS)
03:44AM 51.1785 2.0763 102° East 507 583 35,000  Level FlightAware ADS-B (LSXS)
03:45AM 51.1611 2.2524 102° East 494 568 35,000  Level FlightAware UK
03:45AM 51.1600 2.2510 102° East 509 586 35,000  Level FlightAware
03:45AM 51.1480 2.3700 99° East 510 587 35,000  Level FlightAware
03:46AM 51.1330 2.5080 100° East 510 587 35,000  Level FlightAware
03:46AM 51.1152 2.6733 100° East 496 571 35,000  Level FlightAware UK
03:47AM 51.1180 2.6420 100° East 509 586 35,000  Level FlightAware
03:47AM 51.1040 2.7780 99° East 509 586 35,000  Level FlightAware
03:48AM 51.0930 2.8750 100° East 509 586 35,000  Level FlightAware
03:48AM 51.0780 3.0180 99° East 508 585 35,000  Level FlightAware
03:49AM 51.0563 3.2043 99° East 496 571 35,000  Level FlightAware UK
03:49AM 51.0630 3.1520 99° East 508 585 35,000  Level FlightAware
03:49AM 51.0480 3.2800 101° East 507 583 35,000  Level FlightAware
03:50AM 51.0277 3.4461 101° East 494 568 35,000  Level FlightAware UK
03:50AM 51.0330 3.4050 101° East 508 585 35,000  Level FlightAware
03:51AM 51.0170 3.5410 101° East 507 583 35,000  Level FlightAware
03:51AM 51.0142 3.5681 99° East 508 585 35,000  Level FlightAware ADS-B
03:52AM 50.9800 3.7930 103° East 507 583 35,000  Level FlightAware
03:52AM 50.9610 3.9100 104° East 507 583 35,000  Level FlightAware
03:53AM 50.9400 4.0390 104° East 508 585 35,000  Level FlightAware
03:54AM 50.9190 4.1710 104° East 510 587 35,000  Level FlightAware
03:54AM 50.9000 4.2940 104° East 511 588 35,000  Level FlightAware
03:55AM 50.8704 4.4667 104° East 494 568 35,000  Level FlightAware UK
03:55AM 50.8790 4.4220 104° East 513 590 35,000  Level FlightAware
03:55AM 50.8590 4.5470 104° East 513 590 35,000  Level FlightAware
03:56AM 50.8380 4.6780 104° East 515 593 35,000  Level FlightAware
03:56AM 50.8190 4.7950 104° East 516 594 35,000  Level FlightAware
03:57AM 50.7970 4.9250 105° East 518 596 35,000  Level FlightAware
03:58AM 50.7750 5.0520 105° East 519 597 35,000  Level FlightAware
03:58AM 50.7520 5.1920 105° East 518 596 35,000  Level FlightAware
03:59AM 50.7310 5.3110 106° East 517 595 35,000  Level FlightAware
03:59AM 50.7090 5.4360 105° East 514 592 35,000  Level FlightAware
04:00AM 50.6840 5.5790 105° East 513 590 35,000  Level FlightAware
04:00AM 50.6640 5.6940 105° East 512 589 35,000  Level FlightAware
04:01AM 50.6592 5.7186 107° East 513 590 35,000  Level FlightAware ADS-B
04:01AM 50.6358 5.8477 106° East 513 590 35,000  Level FlightAware ADS-B
04:02AM 50.6059 6.0114 106° East 513 590 35,000  Level FlightAware ADS-B
04:03AM 50.5720 6.1960 106° East 512 589 35,000  Level FlightAware
04:03AM 50.5658 6.2334 105° East 513 590 35,000  Level FlightAware ADS-B
04:04AM 50.5410 6.3693 106° East 512 589 35,000  Level FlightAware ADS-B
04:04AM 50.5186 6.4912 106° East 511 588 35,000  Level FlightAware ADS-B
04:05AM 50.5004 6.5901 106° East 511 588 35,000  Level FlightAware ADS-B
04:05AM 50.4787 6.7098 106° East 511 588 35,000  Level FlightAware ADS-B
04:06AM 50.4677 6.8166 99° East 509 586 35,000  Level FlightAware ADS-B
04:06AM 50.4544 6.9629 98° East 509 586 35,000  Level FlightAware ADS-B
04:07AM 50.4430 7.0760 99° East 511 588 35,000  Level FlightAware
04:07AM 50.4310 7.1869 100° East 514 592 35,000  Level FlightAware ADS-B
04:08AM 50.4130 7.3420 100° East 515 593 35,000  Level FlightAware
04:08AM 50.4095 7.3715 101° East 516 594 35,000  Level FlightAware ADS-B
04:09AM 50.3830 7.5920 101° East 519 597 35,000  Level FlightAware
04:10AM 50.3690 7.7140 100° East 519 597 35,000  Level FlightAware
04:10AM 50.3540 7.8590 99° East 520 598 35,000  Level FlightAware
04:11AM 50.3470 7.9220 100° East 522 601 35,000  Level FlightAware
04:12AM 50.3270 8.1100 99° East 525 604 35,000  Level FlightAware
04:12AM 50.3100 8.2610 100° East 527 606 35,000  Level FlightAware
04:13AM 50.2950 8.3940 100° East 528 608 35,000  Level FlightAware
04:13AM 50.2800 8.5290 100° East 530 610 35,000  Level FlightAware
04:14AM 50.2640 8.6660 100° East 532 612 35,000  Level FlightAware
04:15AM 50.2470 8.8030 101° East 535 616 35,000  Level FlightAware
04:15AM 50.2320 8.9300 100° East 538 619 35,000  Level FlightAware
04:16AM 50.2150 9.0630 101° East 541 623 35,000  Level FlightAware
04:16AM 50.1960 9.2040 102° East 543 625 35,000  Level FlightAware
04:17AM 50.1770 9.3430 102° East 544 626 35,000  Level FlightAware
04:17AM 50.1620 9.4510 102° East 545 627 35,000  Level FlightAware
04:18AM 50.1420 9.6020 102° East 543 625 35,000  Level FlightAware
04:19AM 50.1240 9.7270 103° East 541 623 35,000  Level FlightAware
04:19AM 50.1040 9.8750 102° East 537 618 35,000  Level FlightAware
04:20AM 50.0880 9.9900 102° East 535 616 35,000  Level FlightAware
04:20AM 50.0690 10.1180 103° East 531 611 35,000  Level FlightAware
04:21AM 50.0490 10.2640 102° East 529 609 35,000  Level FlightAware
04:22AM 50.0310 10.3850 103° East 528 608 35,000  Level FlightAware
04:22AM 50.0130 10.5110 102° East 529 609 35,000  Level FlightAware
04:23AM 49.9940 10.6390 103° East 530 610 35,000  Level FlightAware
04:23AM 49.9760 10.7640 103° East 532 612 35,000  Level FlightAware
04:24AM 49.9540 10.9080 103° East 532 612 35,000  Level FlightAware
04:25AM 49.9340 11.0440 103° East 534 615 35,000  Level FlightAware
04:25AM 49.9130 11.1860 103° East 535 616 35,000  Level FlightAware
04:26AM 49.8910 11.3260 104° East 535 616 35,000  Level FlightAware
04:26AM 49.8700 11.4650 103° East 534 615 35,000  Level FlightAware
04:27AM 49.8510 11.5850 104° East 534 615 35,000  Level FlightAware
04:28AM 49.8300 11.7170 104° East 535 616 35,000  Level FlightAware
04:28AM 49.8110 11.8410 103° East 534 615 35,000  Level FlightAware
04:28AM 49.8002 11.9052 105° East 535 616 35,000  Level FlightAware ADS-B (LKPR / PRG)
04:29AM 49.7826 12.0155 104° East 535 616 35,000  Level FlightAware ADS-B (LKPR / PRG)
04:29AM 49.7650 12.1263 104° East 536 617 35,000  Level FlightAware ADS-B (LKPR / PRG)
04:30AM 49.7470 12.2380 104° East 535 616 35,000  Level FlightAware
04:30AM 49.7413 12.2741 104° East 535 616 35,000  Level FlightAware ADS-B (LKPR / PRG)
04:31AM 49.7273 12.3548 105° East 535 616 35,000  Level FlightAware ADS-B (LKPR / PRG)
04:31AM 49.7022 12.4939 106° East 535 616 35,000  Level FlightAware ADS-B (LKPR / PRG)
04:32AM 49.6745 12.6476 105° East 535 616 35,000  Level FlightAware ADS-B (LKPR / PRG)
04:32AM 49.6531 12.7654 106° East 535 616 35,000  Level FlightAware ADS-B (LKPR / PRG)
04:33AM 49.6320 12.8810 106° East 534 615 35,000  Level FlightAware
04:33AM 49.6270 12.9094 105° East 535 616 35,000  Level FlightAware ADS-B (LKPR / PRG)
04:33AM 49.6080 13.0150 105° East 534 615 35,000  Level FlightAware
04:34AM 49.6013 13.0515 106° East 535 616 35,000  Level FlightAware ADS-B (LKPR / PRG)
04:34AM 49.5801 13.1677 106° East 534 615 35,000  Level FlightAware ADS-B (LKPR / PRG)
04:35AM 49.5565 13.2950 106° East 534 615 35,000  Level FlightAware ADS-B (LKPR / PRG)
04:35AM 49.5336 13.4192 106° East 534 615 35,000  Level FlightAware ADS-B (LKPR / PRG)
04:36AM 49.4993 13.6031 106° East 534 615 35,000  Level FlightAware ADS-B (LKPR / PRG)
04:37AM 49.4784 13.7134 106° East 535 616 35,000  Level FlightAware ADS-B (LKPR / PRG)
04:37AM 49.4610 13.8057 106° East 535 616 35,000  Level FlightAware ADS-B (LKPR / PRG)
04:38AM 49.4368 13.9325 106° East 536 617 35,000  Level FlightAware ADS-B (LKPR / PRG)
04:38AM 49.4159 14.0410 106° East 536 617 35,000  Level FlightAware ADS-B (LKPR / PRG)
04:39AM 49.3957 14.1440 107° East 537 618 35,000  Level FlightAware ADS-B (LKPR / PRG)
04:39AM 49.3752 14.2493 107° East 537 618 35,000  Level FlightAware ADS-B (LKPR / PRG)
04:40AM 49.3522 14.3662 107° East 537 618 35,000  Level FlightAware ADS-B (LKPR / PRG)
04:40AM 49.3212 14.5243 107° East 538 619 35,000  Level FlightAware ADS-B (LKPR / PRG)
04:41AM 49.2975 14.6436 107° East 539 620 35,000  Level FlightAware ADS-B (LKPR / PRG)
04:41AM 49.2727 14.7690 107° East 541 623 35,000  Level FlightAware ADS-B (LKPR / PRG)
04:42AM 49.2445 14.9099 107° East 541 623 35,000  Level FlightAware ADS-B (LKPR / PRG)
04:43AM 49.2170 15.0490 107° East 541 623 35,000  Level FlightAware
04:43AM 49.1880 15.1890 108° East 541 623 35,000  Level FlightAware
04:44AM 49.1630 15.3110 107° East 540 621 35,000  Level FlightAware
04:44AM 49.1370 15.4370 107° East 540 621 35,000  Level FlightAware
04:45AM 49.1080 15.5720 108° East 540 621 35,000  Level FlightAware
04:46AM 49.0850 15.6860 107° East 540 621 35,000  Level FlightAware
04:46AM 49.0570 15.8200 108° East 541 623 35,000  Level FlightAware
04:47AM 49.0310 15.9430 108° East 540 621 35,000  Level FlightAware
04:47AM 49.0040 16.0710 108° East 539 620 35,000  Level FlightAware
04:48AM 48.9790 16.1900 108° East 538 619 35,000  Level FlightAware
04:49AM 48.9510 16.3170 109° East 538 619 35,000  Level FlightAware
04:49AM 48.9240 16.4430 108° East 537 618 35,000  Level FlightAware
04:50AM 48.8960 16.5710 108° East 538 619 35,000  Level FlightAware
04:50AM 48.8700 16.6920 108° East 536 617 35,000  Level FlightAware
04:51AM 48.8420 16.8180 109° East 534 615 35,000  Level FlightAware
04:52AM 48.8120 16.9520 109° East 532 612 35,000  Level FlightAware
04:52AM 48.7840 17.0570 112° Southeast 527 606 35,000  Level FlightAware
04:52AM 48.7510 17.1250 126° Southeast 521 600 35,000  Level FlightAware
04:53AM 48.6930 17.2270 131° Southeast 520 598 35,000  Level FlightAware
04:54AM 48.6440 17.3180 129° Southeast 520 598 35,000  Level FlightAware
04:54AM 48.5890 17.4190 129° Southeast 518 596 35,000  Level FlightAware
04:55AM 48.5340 17.5150 131° Southeast 515 593 35,000  Level FlightAware
04:55AM 48.4850 17.5970 132° Southeast 516 594 35,000  Level FlightAware
04:56AM 48.4160 17.7110 132° Southeast 514 592 35,000  Level FlightAware
04:57AM 48.3530 17.8140 133° Southeast 513 590 35,000  Level FlightAware
04:57AM 48.2970 17.9080 132° Southeast 510 587 35,000  Level FlightAware
04:58AM 48.2510 17.9840 132° Southeast 508 585 35,000  Level FlightAware
04:58AM 48.1980 18.0730 132° Southeast 507 583 35,000  Level FlightAware
04:59AM 48.1370 18.1740 132° Southeast 507 583 35,000  Level FlightAware
05:00AM 48.0800 18.2700 132° Southeast 507 583 35,000  Level FlightAware
05:00AM 48.0250 18.3600 132° Southeast 505 581 35,000  Level FlightAware
05:01AM 47.9680 18.4560 132° Southeast 504 580 35,000  Level FlightAware
05:01AM 47.9160 18.5400 133° Southeast 505 581 35,000  Level FlightAware
05:02AM 47.8620 18.6290 132° Southeast 504 580 35,000  Level FlightAware
05:02AM 47.8030 18.7220 133° Southeast 505 581 35,000  Level FlightAware
05:03AM 47.7430 18.8200 132° Southeast 505 581 35,000  Level FlightAware
05:04AM 47.6920 18.9010 133° Southeast 505 581 35,000  Level FlightAware
05:04AM 47.6350 18.9920 133° Southeast 505 581 35,000  Level FlightAware
05:05AM 47.5770 19.0840 133° Southeast 505 581 35,000  Level FlightAware
05:05AM 47.5220 19.1720 133° Southeast 504 580 35,000  Level FlightAware
05:06AM 47.4700 19.2560 132° Southeast 505 581 35,000  Level FlightAware
05:07AM 47.4050 19.3570 134° Southeast 505 581 35,000  Level FlightAware
05:07AM 47.3470 19.4500 133° Southeast 506 582 35,000  Level FlightAware
05:08AM 47.2900 19.5400 133° Southeast 506 582 35,000  Level FlightAware
05:08AM 47.2320 19.6300 133° Southeast 506 582 35,000  Level FlightAware
05:09AM 47.1770 19.7160 133° Southeast 507 583 35,000  Level FlightAware
05:10AM 47.1210 19.8030 133° Southeast 507 583 35,000  Level FlightAware
05:10AM 47.0650 19.8890 134° Southeast 507 583 35,000  Level FlightAware
05:11AM 46.9850 20.0110 134° Southeast 506 582 35,000  Level FlightAware
05:12AM 46.9280 20.0990 133° Southeast 506 582 35,000  Level FlightAware
05:12AM 46.8760 20.1790 134° Southeast 505 581 35,000  Level FlightAware
05:13AM 46.8160 20.2710 134° Southeast 503 579 35,000  Level FlightAware
05:13AM 46.7570 20.3610 134° Southeast 502 578 35,000  Level FlightAware
05:14AM 46.7110 20.4330 133° Southeast 500 575 35,000  Level FlightAware
05:14AM 46.6610 20.5080 134° Southeast 499 574 35,000  Level FlightAware
05:15AM 46.5960 20.6060 134° Southeast 498 573 35,000  Level FlightAware
05:16AM 46.5420 20.6880 134° Southeast 498 573 35,000  Level FlightAware
05:16AM 46.4760 20.7880 134° Southeast 497 572 35,000  Level FlightAware
05:17AM 46.4240 20.8630 135° Southeast 498 573 35,000  Level FlightAware
05:17AM 46.3830 20.9050 145° Southeast 495 570 35,000  Level FlightAware
05:18AM 46.3160 20.9540 153° Southeast 495 570 35,000 480 Level FlightAware
05:18AM 46.2470 21.0030 154° Southeast 497 572 35,600 1,260 Climbing FlightAware
05:19AM 46.1440 21.0750 154° Southeast 493 567 36,800 960 Climbing FlightAware
05:20AM 46.0770 21.1290 151° Southeast 493 567 37,000 120 Climbing FlightAware
05:20AM 46.0160 21.1980 142° Southeast 492 566 37,000  Level FlightAware
05:21AM 45.9570 21.2720 139° Southeast 492 566 37,000  Level FlightAware
05:21AM 45.8890 21.3550 140° Southeast 493 567 37,000  Level FlightAware
05:22AM 45.8320 21.4260 139° Southeast 493 567 37,000  Level FlightAware
05:23AM 45.7750 21.4950 140° Southeast 493 567 37,000  Level FlightAware
05:23AM 45.7110 21.5730 140° Southeast 492 566 37,000  Level FlightAware
05:24AM 45.6470 21.6500 140° Southeast 491 565 37,000  Level FlightAware
05:25AM 45.5710 21.7420 140° Southeast 490 564 37,000  Level FlightAware
05:25AM 45.5240 21.8000 139° Southeast 489 563 37,000  Level FlightAware
05:26AM 45.4640 21.8720 140° Southeast 489 563 37,000  Level FlightAware
05:26AM 45.3960 21.9540 140° Southeast 490 564 37,000  Level FlightAware
05:27AM 45.3160 22.0490 140° Southeast 491 565 37,000  Level FlightAware
05:28AM 45.2560 22.1200 140° Southeast 491 565 37,000  Level FlightAware
05:28AM 45.1940 22.1940 140° Southeast 492 566 37,000  Level FlightAware
05:29AM 45.1380 22.2600 140° Southeast 493 567 37,000  Level FlightAware
05:29AM 45.0740 22.3360 140° Southeast 494 568 37,000  Level FlightAware
05:30AM 45.0230 22.3950 141° Southeast 495 570 37,000  Level FlightAware
05:30AM 44.9480 22.4830 140° Southeast 494 568 37,000  Level FlightAware
05:31AM 44.8840 22.5570 141° Southeast 495 570 37,000  Level FlightAware
05:32AM 44.8250 22.6250 141° Southeast 496 571 37,000  Level FlightAware
05:32AM 44.7670 22.6930 140° Southeast 497 572 37,000  Level FlightAware
05:33AM 44.7080 22.7620 140° Southeast 496 571 37,000  Level FlightAware
05:34AM 44.6170 22.8610 142° Southeast 498 573 37,000  Level FlightAware
05:34AM 44.5690 22.8960 153° Southeast 496 571 37,000  Level FlightAware
05:35AM 44.4890 22.9330 162° South 494 568 37,000  Level FlightAware
05:35AM 44.3960 22.9710 164° South 495 570 37,000  Level FlightAware
05:36AM 44.3180 23.0020 164° South 494 568 37,000  Level FlightAware
05:37AM 44.2400 23.0340 164° South 494 568 37,000  Level FlightAware
05:37AM 44.1490 23.0720 163° South 494 568 37,000  Level FlightAware
05:38AM 44.0730 23.1030 164° South 496 571 37,000  Level FlightAware
05:38AM 43.9970 23.1330 164° South 496 571 37,000  Level FlightAware
05:39AM 43.9040 23.1710 164° South 495 570 37,000  Level FlightAware
05:40AM 43.8220 23.2040 164° South 495 570 37,000  Level FlightAware
05:40AM 43.7630 23.2280 164° South 494 568 37,000  Level FlightAware
05:41AM 43.6640 23.2680 164° South 492 566 37,000  Level FlightAware
05:42AM 43.5760 23.3070 162° South 492 566 37,000  Level FlightAware
05:42AM 43.5050 23.3420 160° South 492 566 37,000  Level FlightAware
05:43AM 43.4030 23.3920 160° South 493 567 37,000  Level FlightAware
05:43AM 43.3270 23.4300 160° South 495 570 37,000  Level FlightAware
05:44AM 43.2580 23.4650 160° South 495 570 37,000  Level FlightAware
05:45AM 43.1810 23.5040 160° South 495 570 37,000  Level FlightAware
05:45AM 43.1030 23.5430 160° South 494 568 37,000  Level FlightAware
05:46AM 43.0270 23.5800 160° South 492 566 37,000  Level FlightAware
05:46AM 42.9630 23.6110 160° South 493 567 37,000  Level FlightAware
05:47AM 42.8800 23.6520 160° South 493 567 37,000  Level FlightAware
05:48AM 42.7910 23.6960 160° South 492 566 37,000  Level FlightAware
05:48AM 42.7000 23.7400 160° South 492 566 37,000  Level FlightAware
05:49AM 42.6370 23.7720 160° South 491 565 37,000  Level FlightAware
05:49AM 42.5600 23.8100 160° South 491 565 37,000  Level FlightAware
05:50AM 42.4800 23.8480 161° South 489 563 37,000  Level FlightAware
05:51AM 42.4070 23.8840 160° South 491 565 37,000  Level FlightAware
05:51AM 42.3240 23.9230 161° South 490 564 37,000  Level FlightAware
05:52AM 42.2410 23.9640 160° South 492 566 37,000  Level FlightAware
05:53AM 42.1590 24.0040 160° South 491 565 37,000  Level FlightAware
05:53AM 42.0790 24.0420 161° South 491 565 37,000  Level FlightAware
05:54AM 41.9940 24.0830 160° South 490 564 37,000  Level FlightAware
05:54AM 41.9190 24.1190 160° South 490 564 37,000  Level FlightAware
05:55AM 41.8540 24.1510 160° South 490 564 37,000  Level FlightAware
05:55AM 41.7860 24.1840 160° South 491 565 37,000  Level FlightAware
05:56AM 41.6980 24.2260 160° South 492 566 37,000  Level FlightAware
05:57AM 41.6190 24.2640 160° South 493 567 37,000  Level FlightAware
05:57AM 41.5540 24.2950 160° South 491 565 37,000  Level FlightAware
05:58AM 41.4850 24.3300 159° South 485 558 37,000  Level FlightAware
05:58AM 41.3970 24.3750 159° South 480 552 37,000  Level FlightAware
05:59AM 41.3250 24.4110 159° South 478 550 37,000  Level FlightAware
06:00AM 41.2660 24.4410 159° South 477 549 37,000  Level FlightAware
06:00AM 41.1970 24.4750 160° South 477 549 37,000  Level FlightAware
06:01AM 41.1170 24.5150 159° South 477 549 37,000  Level FlightAware
06:01AM 41.0450 24.5510 159° South 475 547 37,000  Level FlightAware
06:02AM 40.9860 24.5800 160° South 473 544 37,000  Level FlightAware
06:03AM 40.9020 24.6220 159° South 473 544 37,000  Level FlightAware
06:03AM 40.8350 24.6550 160° South 473 544 37,000  Level FlightAware
06:04AM 40.7490 24.6980 159° South 472 543 37,000  Level FlightAware
06:04AM 40.7490 24.6980 159° South 473 544 37,000  Level FlightAware
06:05AM 40.5750 24.7840 159° South 461 531 37,000  Level FlightAware
06:06AM 40.4890 24.8260 160° South 476 548 37,000  Level FlightAware
06:06AM 40.4170 24.8610 160° South 476 548 37,000  Level FlightAware
06:07AM 40.3400 24.8990 159° South 477 549 37,000  Level FlightAware
06:08AM 40.2680 24.9340 160° South 476 548 37,000  Level FlightAware
06:08AM 40.1910 24.9710 160° South 476 548 37,000  Level FlightAware
06:09AM 40.0880 25.0210 160° South 477 549 37,000  Level FlightAware
06:10AM 40.0070 25.0610 159° South 478 550 37,000  Level FlightAware
06:10AM 39.9330 25.0960 160° South 477 549 37,000  Level FlightAware
06:11AM 39.8670 25.1280 160° South 476 548 37,000  Level FlightAware
06:12AM 39.7790 25.1700 160° South 475 547 37,000  Level FlightAware
06:12AM 39.6970 25.2090 160° South 470 541 37,000  Level FlightAware
06:13AM 39.6160 25.2490 159° South 468 539 37,000  Level FlightAware
06:14AM 39.5520 25.2810 159° South 468 539 37,000  Level FlightAware
06:14AM 39.4900 25.3120 159° South 468 539 37,000  Level FlightAware
06:15AM 39.3820 25.3600 161° South 461 531 37,000  Level FlightAware
06:15AM 39.3100 25.3940 160° South 460 529 37,000  Level FlightAware
06:16AM 39.2430 25.4260 160° South 459 528 37,000  Level FlightAware
06:17AM 39.1750 25.4580 160° South 458 527 37,000  Level FlightAware
06:17AM 39.1050 25.4910 160° South 455 524 37,000  Level FlightAware
06:18AM 39.0330 25.5240 160° South 453 521 37,000  Level FlightAware
06:18AM 38.9520 25.5620 160° South 451 519 37,000  Level FlightAware
06:19AM 38.8820 25.5950 160° South 450 518 37,000  Level FlightAware
06:20AM 38.8120 25.6280 160° South 450 518 37,000  Level FlightAware
06:20AM 38.7480 25.6580 160° South 450 518 37,000  Level FlightAware
06:21AM 38.6790 25.6900 160° South 450 518 37,000  Level FlightAware
06:21AM 38.6090 25.7220 160° South 450 518 37,000  Level FlightAware
06:22AM 38.5460 25.7510 160° South 451 519 37,000  Level FlightAware
06:23AM 38.4720 25.7850 160° South 452 520 37,000  Level FlightAware
06:23AM 38.4000 25.8180 160° South 451 519 37,000  Level FlightAware
06:24AM 38.3310 25.8490 161° South 450 518 37,000  Level FlightAware
06:24AM 38.2670 25.8790 160° South 451 519 37,000  Level FlightAware
06:25AM 38.1980 25.9110 160° South 450 518 37,000  Level FlightAware
06:25AM 38.1390 25.9380 160° South 450 518 37,000  Level FlightAware
06:26AM 38.1010 25.9650 151° Southeast 457 526 37,000  Level FlightAware
06:26AM 38.0390 26.0210 145° Southeast 460 529 37,000  Level FlightAware
06:27AM 37.9770 26.0730 147° Southeast 459 528 37,000  Level FlightAware
06:27AM 37.9170 26.1220 147° Southeast 459 528 37,000  Level FlightAware
06:28AM 37.8480 26.1770 148° Southeast 462 532 37,000  Level FlightAware
06:29AM 37.7900 26.2220 148° Southeast 464 534 37,000  Level FlightAware
06:29AM 37.7270 26.2750 146° Southeast 466 536 37,000 120 Level FlightAware
06:30AM 37.6610 26.3300 147° Southeast 467 537 37,200 660 Climbing FlightAware
06:30AM 37.6040 26.3780 146° Southeast 468 539 37,800 900 Climbing FlightAware
06:31AM 37.5340 26.4360 147° Southeast 473 544 38,300 840 Climbing FlightAware
06:31AM 37.4760 26.4830 147° Southeast 473 544 38,800 600 Climbing FlightAware
06:32AM 37.4100 26.5380 146° Southeast 478 550 39,000 120 Climbing FlightAware
06:33AM 37.3420 26.5930 147° Southeast 476 548 39,000  Level FlightAware
06:33AM 37.2760 26.6480 146° Southeast 476 548 39,000  Level FlightAware
06:34AM 37.2170 26.6950 148° Southeast 477 549 39,000  Level FlightAware
06:34AM 37.1540 26.7580 141° Southeast 494 568 39,000  Level FlightAware
06:35AM 37.1100 26.8340 126° Southeast 501 577 39,000  Level FlightAware
06:36AM 37.0620 26.9240 124° Southeast 495 570 39,000  Level FlightAware
06:36AM 37.0100 27.0050 129° Southeast 486 559 39,000  Level FlightAware
06:37AM 36.9580 27.0820 130° Southeast 489 563 39,000  Level FlightAware
06:37AM 36.9270 27.1220 134° Southeast 482 555 39,000  Level FlightAware
06:38AM 36.8650 27.1780 144° Southeast 480 552 39,000  Level FlightAware
06:38AM 36.8020 27.2430 140° Southeast 489 563 39,000  Level FlightAware
06:39AM 36.7470 27.3070 137° Southeast 489 563 39,000  Level FlightAware
06:40AM 36.6730 27.4020 134° Southeast 507 583 39,000  Level FlightAware
06:40AM 36.6090 27.4860 133° Southeast 507 583 39,000  Level FlightAware
06:41AM 36.5510 27.5630 133° Southeast 508 585 39,000  Level FlightAware
06:42AM 36.4840 27.6480 134° Southeast 513 590 39,000  Level FlightAware
06:42AM 36.4280 27.7210 134° Southeast 516 594 39,000  Level FlightAware
06:43AM 36.3650 27.8020 134° Southeast 519 597 39,000  Level FlightAware
06:43AM 36.3120 27.8690 134° Southeast 520 598 39,000  Level FlightAware
06:44AM 36.2490 27.9510 134° Southeast 521 600 39,000  Level FlightAware
06:44AM 36.1880 28.0290 134° Southeast 521 600 39,000  Level FlightAware
06:45AM 36.1340 28.0990 134° Southeast 519 597 39,000  Level FlightAware
06:46AM 36.0730 28.1760 134° Southeast 519 597 39,000  Level FlightAware
06:46AM 36.0130 28.2520 134° Southeast 520 598 39,000  Level FlightAware
06:47AM 35.9540 28.3270 134° Southeast 521 600 39,000  Level FlightAware
06:47AM 35.9000 28.3960 134° Southeast 523 602 39,000  Level FlightAware
06:48AM 35.8380 28.4740 134° Southeast 524 603 39,000  Level FlightAware
06:49AM 35.7780 28.5500 134° Southeast 522 601 39,000  Level FlightAware
06:49AM 35.7230 28.6190 134° Southeast 520 598 39,000  Level FlightAware
06:50AM 35.6640 28.6930 134° Southeast 518 596 39,000  Level FlightAware
06:50AM 35.6030 28.7690 135° Southeast 516 594 39,000  Level FlightAware
06:51AM 35.5460 28.8400 135° Southeast 515 593 39,000  Level FlightAware
06:51AM 35.4850 28.9150 135° Southeast 514 592 39,000  Level FlightAware
06:52AM 35.4250 28.9900 134° Southeast 515 593 39,000  Level FlightAware
06:53AM 35.3700 29.0570 135° Southeast 516 594 39,000  Level FlightAware
06:53AM 35.3110 29.1310 134° Southeast 516 594 39,000  Level FlightAware
06:54AM 35.2530 29.2020 135° Southeast 516 594 39,000  Level FlightAware
06:54AM 35.1930 29.2760 135° Southeast 511 588 39,000  Level FlightAware
06:55AM 35.1380 29.3450 134° Southeast 511 588 39,000  Level FlightAware
06:56AM 35.0880 29.4090 134° Southeast 511 588 39,000  Level FlightAware
06:56AM 35.0180 29.4900 137° Southeast 516 594 39,000  Level FlightAware
06:57AM 34.9380 29.5870 135° Southeast 512 589 39,000  Level FlightAware
06:57AM 34.8880 29.6480 135° Southeast 519 597 39,000  Level FlightAware
06:58AM 34.8330 29.7150 135° Southeast 519 597 39,000  Level FlightAware
06:58AM 34.7860 29.7840 130° Southeast 529 609 39,000  Level FlightAware
06:59AM 34.7380 29.8860 120° Southeast 533 613 39,000  Level FlightAware
07:00AM 34.6950 29.9740 121° Southeast 535 616 39,000  Level FlightAware
07:00AM 34.6450 30.0770 121° Southeast 531 611 39,000  Level FlightAware
07:01AM 34.5860 30.1950 121° Southeast 535 616 39,000  Level FlightAware
07:02AM 34.5470 30.2730 121° Southeast 535 616 39,000  Level FlightAware
07:02AM 34.5010 30.3640 122° Southeast 534 615 39,000  Level FlightAware
07:03AM 34.4580 30.4500 121° Southeast 530 610 39,000  Level FlightAware
07:03AM 34.4110 30.5430 121° Southeast 529 609 39,000  Level FlightAware
07:04AM 34.3650 30.6330 122° Southeast 530 610 39,000  Level FlightAware
07:04AM 34.3220 30.7170 122° Southeast 530 610 39,000  Level FlightAware
07:05AM 34.2760 30.8060 122° Southeast 530 610 39,000  Level FlightAware
07:06AM 34.2310 30.8960 121° Southeast 529 609 39,000  Level FlightAware
07:06AM 34.1860 30.9830 122° Southeast 528 608 39,000  Level FlightAware
07:07AM 34.1400 31.0730 122° Southeast 527 606 39,000  Level FlightAware
07:07AM 34.0950 31.1620 121° Southeast 530 610 39,000  Level FlightAware
07:08AM 34.0500 31.2490 122° Southeast 528 608 39,000  Level FlightAware
07:09AM 34.0040 31.3380 122° Southeast 525 604 39,000  Level FlightAware
07:09AM 33.9600 31.4230 122° Southeast 525 604 39,000  Level FlightAware
07:10AM 33.9140 31.5130 122° Southeast 524 603 39,000  Level FlightAware
07:10AM 33.8700 31.5970 122° Southeast 525 604 39,000  Level FlightAware
07:11AM 33.8510 31.6340 122° Southeast 526 605 39,000  Level FlightAware
07:11AM 33.7800 31.7720 122° Southeast 526 605 39,000  Level FlightAware
07:12AM 33.7340 31.8590 122° Southeast 527 606 39,000  Level FlightAware
07:13AM 33.6900 31.9440 122° Southeast 522 601 39,000  Level FlightAware
07:13AM 33.6450 32.0310 122° Southeast 522 601 39,000  Level FlightAware
07:14AM 33.6000 32.1160 122° Southeast 522 601 39,000  Level FlightAware
07:14AM 33.5540 32.2030 122° Southeast 522 601 39,000  Level FlightAware
07:15AM 33.5080 32.2900 122° Southeast 522 601 39,000  Level FlightAware
07:16AM 33.4430 32.4130 122° Southeast 528 608 39,000  Level FlightAware
07:16AM 33.3980 32.4980 122° Southeast 529 609 39,000 -180 Level FlightAware
07:17AM 33.3500 32.5880 123° Southeast 530 610 38,800 -1,500 Descending FlightAware
07:18AM 33.3050 32.6720 123° Southeast 528 608 37,300 -2,880 Descending FlightAware
07:18AM 33.2590 32.7580 123° Southeast 532 612 35,500 -2,280 Descending FlightAware
07:19AM 33.2360 32.8180 115° Southeast 535 616 35,000 -780 Descending FlightAware
07:19AM 33.2260 32.8720 102° East 541 623 35,000  Level FlightAware
07:19AM 33.2220 32.9850 92° East 542 624 35,000  Level FlightAware
07:20AM 33.2220 33.0740 90° East 530 610 35,000  Level FlightAware
07:21AM 33.2220 33.1910 90° East 491 565 35,000  Level FlightAware
07:21AM 33.2220 33.2760 90° East 482 555 35,000 -180 Level FlightAware
07:22AM 33.2220 33.3640 90° East 477 549 34,800 -1,320 Descending FlightAware
07:22AM 33.2220 33.4710 90° East 473 544 33,400 -1,980 Descending FlightAware
07:23AM 33.2220 33.5540 90° East 466 536 32,500 -1,980 Descending FlightAware
07:24AM 33.2210 33.6650 91° East 465 535 30,900 -1,980 Descending FlightAware
07:24AM 33.2200 33.7590 91° East 448 516 29,900 -1,980 Descending FlightAware
07:25AM 33.2110 33.8040 103° East 431 496 29,100 -2,340 Descending FlightAware
07:25AM 33.1970 33.8400 115° Southeast 415 478 28,500 -2,400 Descending FlightAware
07:25AM 33.1840 33.8610 126° Southeast 406 467 28,000 -2,520 Descending FlightAware
07:25AM 33.1590 33.8870 139° Southeast 392 451 27,200 -2,880 Descending FlightAware
07:26AM 33.1320 33.9050 151° Southeast 383 441 26,300 -2,880 Descending FlightAware
07:26AM 33.0810 33.9250 162° South 378 435 24,900 -2,700 Descending FlightAware
07:27AM 33.0180 33.9480 163° South 367 422 23,300 -2,160 Descending FlightAware
07:27AM 32.9590 33.9680 164° South 359 413 22,300 -1,680 Descending FlightAware
07:28AM 32.9090 33.9870 162° South 350 403 21,400 -1,980 Descending FlightAware
07:29AM 32.8540 34.0070 163° South 351 404 20,100 -2,220 Descending FlightAware
07:29AM 32.7980 34.0280 163° South 350 403 18,800 -2,220 Descending FlightAware
07:30AM 32.7420 34.0490 162° South 343 395 17,400 -2,280 Descending FlightAware
07:30AM 32.6930 34.0670 163° South 336 387 16,200 -2,220 Descending FlightAware
07:31AM 32.6440 34.0850 163° South 328 377 15,000 -2,160 Descending FlightAware
07:31AM 32.5900 34.1050 163° South 319 367 13,700 -1,980 Descending FlightAware
07:32AM 32.5360 34.1240 163° South 302 348 12,500 -1,800 Descending FlightAware
07:32AM 32.5170 34.1330 158° South 297 342 12,100 -1,560 Descending FlightAware
07:33AM 32.4980 34.1490 145° Southeast 293 337 11,700 -1,200 Descending FlightAware
07:33AM 32.4660 34.1850 136° Southeast 280 322 11,100 -1,200 Descending FlightAware
07:34AM 32.4330 34.2230 136° Southeast 275 316 10,300 -1,260 Descending FlightAware
07:34AM 32.4130 34.2470 135° Southeast 271 312 9,900 -1,260 Descending FlightAware
07:34AM 32.3970 34.2660 135° Southeast 270 311 9,500 -600 Descending FlightAware
07:35AM 32.3720 34.2960 135° Southeast 270 311 9,400 -120 Descending FlightAware
07:35AM 32.3540 34.3180 134° Southeast 270 311 9,400  Level FlightAware
07:36AM 32.3370 34.3400 132° Southeast 270 311 9,400  Level FlightAware
07:36AM 32.3180 34.3620 136° Southeast 270 311 9,400 -840 Level FlightAware
07:39AM 32.1503 34.6718 132° Southeast  Level FlightAware Approximate
07:40AM 32.0667 34.8000 125° Southeast  Level FlightAware Approximate
07:41AM 32.0000 34.8667 140° Southeast  Level FlightAware Approximate
07:42AM 32.0095 34.8769 140° Southeast  Level Estimated
07:43AM 32.0095 34.8769 140° Southeast  Level Estimated
07:44AM 32.0095 34.8769 140° Southeast  Level Estimated
07:45AM 32.0095 34.8769 140° Southeast  Level Estimated
07:46AM 32.0095 34.8769 140° Southeast  Level Estimated
07:46AM 32.0440 34.9340 140° Southeast 158 182 1,600  Level FlightAware
07:46AM 32.0590 34.9370 10° North 158 182 1,600  Level FlightAware
07:49AM 32.0095 34.8769 140° Southeast  Level Estimated